Time;durP1;ratioP1;P1;durP2;ratioP2;P2;SDS_P1;SDS_P2;PMS_P1;PMS_P2;Temp;Humidity;BMP_temperature;BMP_pressure;BME280_temperature;BME280_humidity;BME280_pressure;Samples;Min_cycle;Max_cycle;Signal;HPM_P1;HPM_P2
2021/07/08 00:00:40;;;;;;;2.85;1.80;;;;;;;22.14;48.07;101964.69;5033728;28;20060;-89
2021/07/08 00:03:05;;;;;;;2.53;1.75;;;;;;;22.13;47.84;101955.13;5034035;28;20041;-89
2021/07/08 00:05:34;;;;;;;2.75;1.73;;;;;;;22.13;48.11;101962.97;4999773;28;20033;-88
2021/07/08 00:08:00;;;;;;;3.55;1.80;;;;;;;22.13;47.91;101966.47;5016016;28;20084;-88
2021/07/08 00:10:36;;;;;;;1.70;1.50;;;;;;;22.12;48.19;101964.75;4983778;28;20499;-89
2021/07/08 00:13:01;;;;;;;1.80;1.27;;;;;;;22.12;48.07;101959.50;5016631;28;20109;-88
2021/07/08 00:15:28;;;;;;;4.50;1.85;;;;;;;22.12;48.13;101969.97;5016833;28;20061;-87
2021/07/08 00:17:56;;;;;;;3.03;1.85;;;;;;;22.11;48.22;101959.50;5034869;28;20109;-87
2021/07/08 00:20:23;;;;;;;3.97;1.70;;;;;;;22.13;48.08;101960.34;5003522;28;20033;-87
2021/07/08 00:22:49;;;;;;;2.35;1.58;;;;;;;22.11;48.27;101959.50;5004831;28;20017;-88
2021/07/08 00:25:21;;;;;;;3.08;1.67;;;;;;;22.09;48.16;101959.50;5006193;28;20121;-87
2021/07/08 00:27:47;;;;;;;3.13;1.53;;;;;;;22.12;48.43;101958.59;5038087;28;20052;-78
2021/07/08 00:30:14;;;;;;;3.10;1.67;;;;;;;22.11;48.40;101964.75;4983608;28;20400;-78
2021/07/08 00:32:41;;;;;;;3.53;1.60;;;;;;;22.08;48.27;101962.13;4999874;28;20021;-78
2021/07/08 00:35:07;;;;;;;2.08;1.50;;;;;;;22.09;48.59;101963.91;5015780;28;20498;-81
2021/07/08 00:37:32;;;;;;;3.88;2.00;;;;;;;22.07;48.57;101963.03;4982920;28;20044;-79
2021/07/08 00:39:58;;;;;;;2.60;1.52;;;;;;;22.06;48.41;101967.41;4999297;28;20041;-78
2021/07/08 00:42:23;;;;;;;3.67;1.70;;;;;;;22.07;48.35;101963.91;5016119;28;20024;-78
2021/07/08 00:44:49;;;;;;;2.05;1.50;;;;;;;22.05;48.29;101970.91;4999153;28;20033;-79
2021/07/08 00:47:14;;;;;;;2.60;1.60;;;;;;;22.05;48.63;101965.66;4999113;28;20060;-78
2021/07/08 00:49:40;;;;;;;2.45;1.65;;;;;;;22.03;48.57;101963.94;5015533;28;20087;-79
2021/07/08 00:52:06;;;;;;;3.22;1.63;;;;;;;22.03;48.74;101966.56;5015558;28;20029;-79
2021/07/08 00:54:31;;;;;;;3.03;1.80;;;;;;;22.04;48.50;101973.56;5015555;28;20502;-78
2021/07/08 00:56:57;;;;;;;4.25;1.40;;;;;;;22.03;48.69;101972.69;5000910;28;20033;-78
2021/07/08 00:59:22;;;;;;;3.28;1.60;;;;;;;22.00;48.93;101980.59;4986777;28;20057;-78
2021/07/08 01:01:49;;;;;;;2.88;1.45;;;;;;;22.03;48.65;101977.06;5002762;28;20025;-79
2021/07/08 01:04:15;;;;;;;2.75;1.77;;;;;;;22.02;48.83;101972.72;5002972;28;20034;-80
2021/07/08 01:06:46;;;;;;;3.05;1.48;;;;;;;21.99;48.65;101970.97;5019163;28;20187;-78
2021/07/08 01:09:13;;;;;;;3.60;1.65;;;;;;;22.01;48.83;101977.06;5004387;28;20034;-79
2021/07/08 01:11:39;;;;;;;2.53;1.40;;;;;;;22.00;49.00;101980.59;5019013;28;20108;-78
2021/07/08 01:14:06;;;;;;;3.15;1.60;;;;;;;21.97;49.15;101981.50;5018799;28;20131;-80
2021/07/08 01:16:32;;;;;;;2.38;1.50;;;;;;;21.98;49.14;101979.72;5002512;28;20033;-78
2021/07/08 01:18:57;;;;;;;2.97;1.50;;;;;;;21.99;48.98;101970.97;4986192;28;20152;-79
2021/07/08 01:21:28;;;;;;;4.47;1.80;;;;;;;21.98;49.02;101979.72;5002457;28;20120;-78
2021/07/08 01:23:58;;;;;;;3.08;1.60;;;;;;;21.97;49.32;101976.25;5019199;28;20079;-79
2021/07/08 01:26:23;;;;;;;3.10;1.70;;;;;;;21.98;49.03;101980.59;5002604;28;20025;-79
2021/07/08 01:28:53;;;;;;;2.40;1.60;;;;;;;21.97;48.82;101984.09;4986233;28;20037;-81
2021/07/08 01:31:19;;;;;;;3.47;1.60;;;;;;;21.98;49.12;101984.97;5036520;28;20025;-81
2021/07/08 01:33:46;;;;;;;2.53;1.60;;;;;;;21.96;49.35;101982.34;5002117;28;20372;-82
2021/07/08 01:36:12;;;;;;;2.60;1.60;;;;;;;21.96;48.86;101984.13;5002520;28;20025;-80
2021/07/08 01:38:37;;;;;;;2.63;1.58;;;;;;;21.95;49.23;101985.88;5018367;28;20040;-78
2021/07/08 01:41:03;;;;;;;2.78;1.80;;;;;;;21.96;49.23;101984.13;5001928;28;20025;-79
2021/07/08 01:43:33;;;;;;;3.05;1.77;;;;;;;21.97;49.29;101988.47;5018482;28;20407;-79
2021/07/08 01:45:58;;;;;;;3.65;1.60;;;;;;;21.96;49.46;101979.72;5018494;28;20171;-79
2021/07/08 01:48:24;;;;;;;2.72;1.58;;;;;;;21.95;49.45;101980.63;4989059;28;20057;-78
2021/07/08 01:50:49;;;;;;;2.20;1.50;;;;;;;21.94;49.49;101984.13;4987490;28;20021;-78
2021/07/08 01:53:16;;;;;;;3.53;1.60;;;;;;;21.94;49.33;101981.50;5019499;28;20091;-78
2021/07/08 01:55:41;;;;;;;2.97;1.50;;;;;;;21.96;49.43;101981.50;5018395;28;20026;-78
2021/07/08 01:58:06;;;;;;;3.08;1.67;;;;;;;21.95;49.63;101988.50;5001962;28;20041;-79
2021/07/08 02:00:32;;;;;;;3.20;1.60;;;;;;;21.95;49.64;101987.63;4985560;28;20064;-78
2021/07/08 02:02:57;;;;;;;3.83;1.58;;;;;;;21.95;49.49;101985.00;5001586;28;20032;-77
2021/07/08 02:05:23;;;;;;;2.10;1.65;;;;;;;21.94;49.37;101983.25;5018116;28;20048;-78
2021/07/08 02:07:49;;;;;;;3.38;1.52;;;;;;;21.94;49.65;101981.50;5016953;28;20029;-78
2021/07/08 02:10:17;;;;;;;2.33;1.67;;;;;;;21.94;49.72;101985.88;5017874;28;20498;-78
2021/07/08 02:12:45;;;;;;;2.53;1.50;;;;;;;21.94;49.79;101980.63;4985521;28;20025;-78
2021/07/08 02:15:11;;;;;;;3.65;1.83;;;;;;;21.95;49.34;101983.25;5017585;28;20056;-79
2021/07/08 02:17:38;;;;;;;2.97;1.80;;;;;;;21.94;49.67;101983.25;4985301;28;20069;-78
2021/07/08 02:20:07;;;;;;;3.28;1.70;;;;;;;21.93;49.39;101982.41;5001374;28;20040;-78
2021/07/08 02:22:32;;;;;;;2.58;1.70;;;;;;;21.92;49.73;101980.63;5035251;28;20032;-77
2021/07/08 02:24:58;;;;;;;2.83;1.70;;;;;;;21.92;49.44;101983.25;5001364;28;20041;-77
2021/07/08 02:27:24;;;;;;;3.88;1.75;;;;;;;21.94;49.81;101985.88;5017380;28;20511;-77
2021/07/08 02:29:50;;;;;;;3.13;1.67;;;;;;;21.92;49.73;101983.25;5017378;28;20044;-78
2021/07/08 02:32:15;;;;;;;2.55;1.48;;;;;;;21.92;49.65;101987.66;5001302;28;20116;-79
2021/07/08 02:34:41;;;;;;;3.08;1.80;;;;;;;21.92;49.69;101982.41;5001230;28;20025;-82
2021/07/08 02:37:07;;;;;;;2.42;1.75;;;;;;;21.89;49.85;101990.31;4984836;28;20115;-79
2021/07/08 02:39:34;;;;;;;3.30;1.80;;;;;;;21.88;49.65;101993.78;5017496;28;20060;-80
2021/07/08 02:42:00;;;;;;;3.85;1.67;;;;;;;21.84;49.72;101987.72;5034997;28;20021;-78
2021/07/08 02:44:25;;;;;;;4.80;1.50;;;;;;;21.87;49.69;101989.44;5019674;28;20033;-78
2021/07/08 02:46:51;;;;;;;3.60;1.83;;;;;;;21.88;49.85;101984.16;5000869;28;20057;-77
2021/07/08 02:49:16;;;;;;;2.30;1.73;;;;;;;21.88;49.76;101985.94;5000721;28;20036;-77
2021/07/08 02:51:42;;;;;;;4.47;1.80;;;;;;;21.86;49.92;101985.06;5000807;28;20044;-77
2021/07/08 02:54:08;;;;;;;4.00;1.90;;;;;;;21.85;49.96;101984.22;4984473;28;20029;-78
2021/07/08 02:56:34;;;;;;;2.97;1.60;;;;;;;21.85;49.73;101981.59;5017005;28;20479;-77
2021/07/08 02:58:59;;;;;;;8.10;1.85;;;;;;;21.85;49.92;101971.09;5016921;28;20032;-81
2021/07/08 03:01:25;;;;;;;3.15;1.60;;;;;;;21.85;49.94;101976.34;4984408;28;20041;-77
2021/07/08 03:03:50;;;;;;;4.20;2.00;;;;;;;21.86;50.01;101982.47;5000553;28;20091;-77
2021/07/08 03:06:15;;;;;;;4.35;1.85;;;;;;;21.84;49.89;101974.63;4984099;28;20060;-79
2021/07/08 03:08:41;;;;;;;2.72;1.80;;;;;;;21.84;50.02;101969.38;4984252;28;20043;-77
2021/07/08 03:11:06;;;;;;;3.75;1.63;;;;;;;21.84;49.95;101963.25;5000441;28;20360;-79
2021/07/08 03:13:31;;;;;;;3.17;1.80;;;;;;;21.81;49.85;101964.16;4984205;28;20061;-79
2021/07/08 03:15:57;;;;;;;2.60;1.70;;;;;;;21.83;49.81;101969.41;4984007;28;20162;-77
2021/07/08 03:18:22;;;;;;;4.20;1.90;;;;;;;21.84;50.22;101965.88;5016687;28;20034;-77
2021/07/08 03:20:48;;;;;;;3.58;1.60;;;;;;;21.84;49.85;101961.53;5000488;28;20479;-81
2021/07/08 03:23:14;;;;;;;2.40;1.60;;;;;;;21.83;49.79;101965.00;5002524;28;20443;-79
2021/07/08 03:25:40;;;;;;;2.90;1.60;;;;;;;21.84;49.97;101960.63;5035394;28;20071;-80
2021/07/08 03:28:05;;;;;;;3.40;1.90;;;;;;;21.84;49.88;101972.00;4999894;28;20037;-81
2021/07/08 03:30:31;;;;;;;4.32;1.95;;;;;;;21.81;49.84;101963.28;5034199;28;20104;-81
2021/07/08 03:32:58;;;;;;;5.03;1.95;;;;;;;21.79;50.05;101960.69;4983922;28;20037;-80
2021/07/08 03:35:25;;;;;;;3.08;1.58;;;;;;;21.78;49.92;101965.06;5000217;28;20620;-80
2021/07/08 03:37:51;;;;;;;2.65;1.67;;;;;;;21.77;49.67;101968.59;5000052;28;20045;-78
2021/07/08 03:40:18;;;;;;;3.45;1.70;;;;;;;21.78;49.83;101974.69;5033978;28;20033;-79
2021/07/08 03:42:45;;;;;;;2.80;1.73;;;;;;;21.77;49.82;101971.19;5016316;28;20080;-78
2021/07/08 03:45:12;;;;;;;3.20;1.67;;;;;;;21.80;49.90;101975.53;5016172;28;20032;-81
2021/07/08 03:47:38;;;;;;;2.20;1.80;;;;;;;21.80;49.84;101977.25;5016081;28;20021;-79
2021/07/08 03:50:06;;;;;;;2.75;1.70;;;;;;;21.79;50.03;101979.03;5015953;28;20022;-80
2021/07/08 03:52:31;;;;;;;5.15;1.70;;;;;;;21.81;49.91;101981.63;5015814;28;20036;-80
2021/07/08 03:54:57;;;;;;;2.90;1.63;;;;;;;21.79;49.96;101973.78;5016007;28;20033;-80
2021/07/08 03:57:22;;;;;;;2.83;1.88;;;;;;;21.79;50.05;101976.41;5015904;28;20033;-79
2021/07/08 03:59:47;;;;;;;1.83;1.63;;;;;;;21.81;49.99;101979.88;4999454;28;20562;-77
2021/07/08 04:02:13;;;;;;;3.83;1.83;;;;;;;21.81;49.96;101981.63;4983175;28;20025;-79
2021/07/08 04:04:39;;;;;;;3.08;1.90;;;;;;;21.81;49.84;101990.38;4983792;28;20136;-79
2021/07/08 04:07:05;;;;;;;3.92;1.83;;;;;;;21.79;50.00;101989.50;4999223;28;20026;-80
2021/07/08 04:09:31;;;;;;;2.55;1.95;;;;;;;21.80;50.07;101993.88;4999486;28;20087;-80
2021/07/08 04:11:56;;;;;;;2.17;1.60;;;;;;;21.81;49.89;101990.38;4983441;28;20029;-81
2021/07/08 04:14:21;;;;;;;2.80;1.80;;;;;;;21.84;50.03;101995.59;5015574;28;20049;-80
2021/07/08 04:16:47;;;;;;;3.53;1.92;;;;;;;21.84;49.64;101990.34;4983166;28;20037;-80
2021/07/08 04:19:12;;;;;;;2.55;1.73;;;;;;;21.84;50.08;102002.56;4999553;28;20030;-79
2021/07/08 04:21:38;;;;;;;2.10;1.73;;;;;;;21.85;50.01;101999.06;5015572;28;20014;-79
2021/07/08 04:24:03;;;;;;;3.05;1.70;;;;;;;21.86;49.76;101999.06;4983117;28;20041;-78
2021/07/08 04:26:29;;;;;;;2.45;1.65;;;;;;;21.88;49.90;101999.91;4983368;28;20025;-77
2021/07/08 04:28:54;;;;;;;2.83;1.88;;;;;;;21.90;49.84;102006.00;4999442;28;20500;-78
2021/07/08 04:31:20;;;;;;;3.03;2.15;;;;;;;21.88;49.97;102004.28;4983833;28;20467;-80
2021/07/08 04:33:46;;;;;;;2.90;1.90;;;;;;;21.93;49.65;102000.75;5019727;28;20534;-80
2021/07/08 04:36:12;;;;;;;3.00;1.98;;;;;;;21.94;49.66;101998.97;5019744;28;20083;-82
2021/07/08 04:38:41;;;;;;;2.35;1.83;;;;;;;21.95;49.99;101998.97;5004150;28;20128;-78
2021/07/08 04:41:06;;;;;;;4.38;1.70;;;;;;;21.98;49.77;102004.19;5003721;28;20569;-78
2021/07/08 04:43:32;;;;;;;4.15;2.00;;;;;;;22.04;49.64;102005.03;5021137;28;20033;-80
2021/07/08 04:45:57;;;;;;;3.13;1.80;;;;;;;22.07;49.35;102004.97;5019719;28;20033;-78
2021/07/08 04:48:23;;;;;;;3.55;2.00;;;;;;;22.12;49.52;101993.56;4986910;28;20032;-77
2021/07/08 04:50:48;;;;;;;2.90;1.90;;;;;;;22.23;49.05;101996.09;4986665;28;20456;-77
2021/07/08 04:53:17;;;;;;;2.97;1.90;;;;;;;22.38;48.65;102003.81;5002882;28;20026;-78
2021/07/08 04:55:43;;;;;;;4.32;2.10;;;;;;;22.56;48.50;102007.97;5002811;28;20482;-77
2021/07/08 04:58:09;;;;;;;4.20;1.92;;;;;;;22.67;48.46;102010.47;5019009;28;20490;-77
2021/07/08 05:00:34;;;;;;;3.92;1.80;;;;;;;22.73;48.43;102014.75;5002670;28;20025;-76
2021/07/08 05:03:06;;;;;;;3.35;1.90;;;;;;;22.64;48.59;102015.72;5002658;28;20083;-77
2021/07/08 05:05:32;;;;;;;2.78;1.88;;;;;;;22.56;48.77;102012.38;5018925;28;20475;-77
2021/07/08 05:07:57;;;;;;;3.80;1.60;;;;;;;22.51;48.89;102022.88;5002622;28;20041;-77
2021/07/08 05:10:23;;;;;;;3.25;1.88;;;;;;;22.45;48.92;102030.84;5002628;28;20460;-77
2021/07/08 05:12:48;;;;;;;4.25;2.10;;;;;;;22.39;48.83;102036.16;5003038;28;20029;-77
2021/07/08 05:15:15;;;;;;;4.43;2.47;;;;;;;22.33;49.21;102044.94;4986135;28;20057;-77
2021/07/08 05:17:41;;;;;;;4.75;2.28;;;;;;;22.30;49.23;102039.75;5018713;28;20076;-78
2021/07/08 05:20:08;;;;;;;3.03;2.00;;;;;;;22.34;49.21;102045.78;5018942;28;20033;-77
2021/07/08 05:22:35;;;;;;;4.07;1.95;;;;;;;22.46;49.06;102047.44;4986229;28;20030;-78
2021/07/08 05:25:01;;;;;;;2.83;1.70;;;;;;;22.49;49.46;102047.41;5019221;28;20593;-81
2021/07/08 05:27:27;;;;;;;4.18;2.47;;;;;;;22.43;49.37;102040.47;5018727;28;20090;-82
2021/07/08 05:29:52;;;;;;;11.95;4.60;;;;;;;22.38;49.28;102047.50;5002416;28;20026;-79
2021/07/08 05:32:18;;;;;;;7.30;3.83;;;;;;;22.50;48.51;102052.63;4985863;28;20022;-82
2021/07/08 05:34:44;;;;;;;8.25;4.10;;;;;;;22.49;48.33;102052.66;5002170;28;20107;-79
2021/07/08 05:37:10;;;;;;;7.28;4.20;;;;;;;22.34;48.56;102051.94;5018818;28;20375;-83
2021/07/08 05:39:35;;;;;;;6.82;3.95;;;;;;;22.31;48.37;102053.72;5002311;28;20403;-82
2021/07/08 05:42:01;;;;;;;10.68;4.47;;;;;;;22.31;48.60;102056.34;5001651;28;20060;-82
2021/07/08 05:44:27;;;;;;;8.55;4.07;;;;;;;22.32;48.68;102066.81;5034954;28;20105;-83
2021/07/08 05:46:52;;;;;;;7.05;3.85;;;;;;;22.27;48.46;102068.59;5002138;28;20029;-83
2021/07/08 05:49:18;;;;;;;7.63;4.10;;;;;;;22.23;48.80;102069.50;5018343;28;20021;-83
2021/07/08 05:51:43;;;;;;;6.22;3.70;;;;;;;22.40;48.24;102077.22;5001974;28;20036;-81
2021/07/08 05:54:09;;;;;;;7.05;4.07;;;;;;;22.52;47.82;102071.84;5001909;28;20075;-82
2021/07/08 05:56:34;;;;;;;8.98;4.35;;;;;;;22.38;48.41;102082.50;4986174;28;20047;-82
2021/07/08 05:59:00;;;;;;;7.70;3.90;;;;;;;22.35;48.27;102086.91;5001967;28;20029;-81
2021/07/08 06:01:25;;;;;;;9.45;4.22;;;;;;;22.22;48.76;102091.38;5018001;28;20024;-83
2021/07/08 06:03:51;;;;;;;9.23;3.67;;;;;;;22.19;48.79;102100.13;5003362;28;20048;-80
2021/07/08 06:06:17;;;;;;;7.57;3.83;;;;;;;22.18;48.74;102106.22;5020672;28;20025;-82
2021/07/08 06:08:45;;;;;;;9.68;4.20;;;;;;;22.20;48.76;102100.97;5035865;28;20087;-78
2021/07/08 06:11:11;;;;;;;7.00;3.97;;;;;;;22.22;48.79;102104.50;5035590;28;20040;-79
2021/07/08 06:13:36;;;;;;;9.77;3.88;;;;;;;22.26;48.41;102106.22;5017982;28;20029;-80
2021/07/08 06:16:03;;;;;;;9.20;4.00;;;;;;;22.32;48.52;102106.16;5018169;28;20411;-81
2021/07/08 06:18:29;;;;;;;5.70;3.28;;;;;;;22.92;46.82;102087.13;5018650;28;20033;-80
2021/07/08 06:20:55;;;;;;;7.28;3.50;;;;;;;24.58;43.14;102087.25;5017922;28;20044;-80
2021/07/08 06:23:21;;;;;;;8.05;3.50;;;;;;;24.40;43.20;102096.31;5018098;28;20533;-80
2021/07/08 06:25:48;;;;;;;7.82;4.00;;;;;;;23.26;46.17;102099.00;5035417;28;20048;-81
2021/07/08 06:28:14;;;;;;;10.20;3.30;;;;;;;22.71;47.56;102106.63;5017886;28;20034;-79
2021/07/08 06:30:40;;;;;;;7.05;3.20;;;;;;;22.31;49.01;102112.25;5017477;28;20075;-80
2021/07/08 06:33:06;;;;;;;9.15;3.45;;;;;;;22.21;49.67;102112.31;5001113;28;20459;-82
2021/07/08 06:35:31;;;;;;;6.80;3.60;;;;;;;22.14;49.82;102115.00;4984731;28;20041;-81
2021/07/08 06:37:57;;;;;;;9.38;3.65;;;;;;;22.11;49.74;102111.56;4984915;28;20033;-81
2021/07/08 06:40:22;;;;;;;6.25;3.30;;;;;;;22.11;49.70;102122.91;5001002;28;20030;-81
2021/07/08 06:42:48;;;;;;;6.57;3.25;;;;;;;22.14;50.01;102120.25;4984875;28;20029;-81
2021/07/08 06:45:15;;;;;;;8.60;3.70;;;;;;;22.17;49.84;102119.38;4985006;28;20037;-80
2021/07/08 06:47:51;;;;;;;8.10;3.88;;;;;;;22.24;49.87;102126.31;5017025;28;20116;-80
2021/07/08 06:50:20;;;;;;;9.50;3.70;;;;;;;22.23;49.98;102114.06;5017105;28;20104;-80
2021/07/08 06:52:46;;;;;;;6.88;3.38;;;;;;;22.20;50.38;102116.72;5017147;28;20025;-82
2021/07/08 06:55:12;;;;;;;7.05;3.30;;;;;;;22.14;50.32;102116.75;5000300;28;20032;-79
2021/07/08 06:57:51;;;;;;;5.60;3.38;;;;;;;22.07;50.76;102121.19;4984555;28;20025;-81
2021/07/08 07:00:25;;;;;;;9.27;3.22;;;;;;;22.09;51.14;102126.44;5017373;28;20199;-80
2021/07/08 07:02:55;;;;;;;6.18;3.05;;;;;;;22.17;50.69;102138.59;5016932;28;20467;-79
2021/07/08 07:05:22;;;;;;;4.47;2.67;;;;;;;22.20;50.12;102132.44;5017054;28;20037;-79
2021/07/08 07:07:48;;;;;;;7.18;2.85;;;;;;;22.28;49.70;102135.03;5000392;28;20391;-80
2021/07/08 07:10:14;;;;;;;5.72;2.70;;;;;;;22.35;49.73;102140.22;5000248;28;20036;-79
2021/07/08 07:12:41;;;;;;;5.45;2.80;;;;;;;22.36;49.66;102139.34;5000509;28;20365;-79
2021/07/08 07:15:07;;;;;;;10.18;3.10;;;;;;;22.92;47.80;102139.63;4996901;28;20058;-79
2021/07/08 07:17:33;;;;;;;4.93;2.90;;;;;;;23.23;47.12;102138.44;4997062;28;20092;-79
2021/07/08 07:19:59;;;;;;;7.40;3.13;;;;;;;23.65;45.70;102139.63;4981096;28;20033;-79
2021/07/08 07:22:24;;;;;;;8.95;3.03;;;;;;;24.22;44.68;102133.50;4981063;28;20022;-79
2021/07/08 07:24:52;;;;;;;6.78;2.95;;;;;;;24.92;42.90;102136.63;5013277;28;20065;-79
2021/07/08 07:27:17;;;;;;;7.97;2.80;;;;;;;25.03;41.96;102132.00;4997234;28;20048;-79
2021/07/08 07:29:47;;;;;;;4.90;2.60;;;;;;;25.14;41.74;102118.59;5014346;28;20472;-79
2021/07/08 07:32:13;;;;;;;5.43;2.80;;;;;;;25.15;42.37;102125.63;5013081;28;20022;-80
2021/07/08 07:34:38;;;;;;;6.38;2.58;;;;;;;24.86;41.14;102109.53;5012887;28;20030;-77
2021/07/08 07:37:06;;;;;;;4.10;2.38;;;;;;;24.92;41.91;102115.53;4996591;28;20050;-77
2021/07/08 07:39:32;;;;;;;5.82;2.50;;;;;;;24.67;41.27;102115.16;5013355;28;20476;-77
2021/07/08 07:41:57;;;;;;;5.80;2.33;;;;;;;24.73;41.10;102115.03;5014501;28;20032;-78
2021/07/08 07:44:23;;;;;;;6.10;2.42;;;;;;;24.81;41.14;102117.53;5016693;28;20033;-77
2021/07/08 07:46:48;;;;;;;3.53;2.33;;;;;;;24.76;41.05;102122.00;5016892;28;20365;-78
2021/07/08 07:49:14;;;;;;;4.80;2.60;;;;;;;24.68;41.03;102116.91;5014659;28;20029;-78
2021/07/08 07:51:40;;;;;;;4.00;2.45;;;;;;;24.59;40.70;102130.25;5013982;28;20022;-79
2021/07/08 07:54:05;;;;;;;3.00;2.30;;;;;;;24.42;41.39;102119.97;4997183;28;20041;-77
2021/07/08 07:56:31;;;;;;;3.90;2.55;;;;;;;24.41;41.18;102121.75;5014249;28;20061;-79
2021/07/08 07:58:56;;;;;;;4.45;2.55;;;;;;;24.47;41.29;102120.75;4996371;28;20033;-80
2021/07/08 08:01:21;;;;;;;6.45;3.13;;;;;;;24.37;41.49;102120.06;5012911;28;20029;-80
2021/07/08 08:03:49;;;;;;;6.13;2.72;;;;;;;24.26;42.05;102118.50;4996427;28;20041;-78
2021/07/08 08:08:58;;;;;;;5.63;3.22;;;;;;;23.96;43.05;102124.25;5014321;28;20048;-79
2021/07/08 08:11:24;;;;;;;5.25;2.72;;;;;;;23.85;43.35;102131.47;5012598;28;20490;-78
2021/07/08 08:13:50;;;;;;;5.07;2.83;;;;;;;23.59;44.49;102132.69;4980221;28;20073;-78
2021/07/08 08:16:16;;;;;;;6.15;2.90;;;;;;;23.80;44.08;102128.91;5012502;28;20050;-78
2021/07/08 08:18:41;;;;;;;5.82;3.30;;;;;;;23.39;44.97;102137.34;4996481;28;20080;-79
2021/07/08 08:21:06;;;;;;;4.35;2.50;;;;;;;23.58;44.28;102125.69;5012461;28;20029;-78
2021/07/08 08:23:32;;;;;;;5.00;2.90;;;;;;;23.58;44.35;102124.81;5012512;28;20468;-78
2021/07/08 08:26:00;;;;;;;5.53;2.97;;;;;;;23.80;43.80;102125.38;4979839;28;20434;-78
2021/07/08 08:28:25;;;;;;;5.32;3.05;;;;;;;23.67;44.13;102126.44;5013721;28;20057;-79
2021/07/08 08:30:51;;;;;;;5.53;2.97;;;;;;;23.58;44.08;102128.31;4996387;28;20060;-78
2021/07/08 08:33:17;;;;;;;4.78;2.97;;;;;;;23.66;44.22;102135.22;5012370;28;20018;-80
2021/07/08 08:35:42;;;;;;;7.93;3.00;;;;;;;23.57;43.92;102131.81;5013564;28;20026;-79
2021/07/08 08:38:08;;;;;;;6.03;2.88;;;;;;;23.40;44.42;102136.44;4996133;28;20099;-79
2021/07/08 08:40:35;;;;;;;4.70;2.95;;;;;;;23.41;44.58;102138.19;4996565;28;20038;-88
2021/07/08 08:43:02;;;;;;;5.93;3.10;;;;;;;23.45;44.13;102134.63;4996166;28;20038;-88
2021/07/08 08:45:29;;;;;;;5.38;3.00;;;;;;;23.48;44.02;102131.97;5012448;28;20034;-87
2021/07/08 08:48:06;;;;;;;4.97;2.80;;;;;;;23.40;44.67;102131.19;4996613;28;20538;-88
2021/07/08 08:50:49;;;;;;;5.70;3.10;;;;;;;23.44;44.69;102135.53;4996290;28;20128;-88
2021/07/08 08:53:16;;;;;;;6.43;2.90;;;;;;;23.38;44.95;102135.59;4995776;28;20164;-87
2021/07/08 08:55:43;;;;;;;4.97;2.75;;;;;;;23.30;45.09;102138.34;5012357;28;20030;-87
2021/07/08 08:58:18;;;;;;;8.23;3.00;;;;;;;23.14;45.85;102144.66;5012213;28;20392;-87
2021/07/08 09:00:48;;;;;;;6.78;3.22;;;;;;;23.28;45.86;102140.13;5012268;28;20022;-88
2021/07/08 09:03:15;;;;;;;6.45;2.80;;;;;;;23.33;45.84;102137.44;5012191;28;20022;-87
2021/07/08 09:05:43;;;;;;;8.25;3.35;;;;;;;23.29;45.92;102146.22;5012313;28;20116;-87
2021/07/08 09:08:23;;;;;;;5.65;3.58;;;;;;;23.16;46.15;102149.00;5011931;28;20029;-87
2021/07/08 09:11:08;;;;;;;4.90;2.70;;;;;;;23.08;46.67;102148.25;5013597;28;20025;-88
2021/07/08 09:13:47;;;;;;;5.97;3.20;;;;;;;23.17;46.39;102155.16;5012162;28;20229;-90
2021/07/08 09:16:22;;;;;;;7.50;3.10;;;;;;;23.10;46.43;102138.56;5014223;28;20057;-89
2021/07/08 09:18:56;;;;;;;8.15;3.10;;;;;;;23.28;46.17;102139.22;5019150;28;20053;-88
2021/07/08 09:21:22;;;;;;;7.40;3.42;;;;;;;23.14;46.52;102140.28;5017697;28;20457;-89
2021/07/08 09:24:04;;;;;;;6.40;3.00;;;;;;;23.15;46.91;102135.91;5001578;28;20034;-89
2021/07/08 09:26:30;;;;;;;5.40;3.30;;;;;;;23.16;46.69;102140.25;5029316;28;20064;-89
2021/07/08 09:29:06;;;;;;;4.60;3.22;;;;;;;23.01;47.21;102151.81;4999970;28;20120;-91
2021/07/08 09:31:33;;;;;;;7.03;3.53;;;;;;;23.00;47.21;102157.97;5000094;28;20026;-89
2021/07/08 09:34:32;;;;;;;5.32;3.38;;;;;;;22.92;47.17;102163.25;4998972;28;20341;-88
2021/07/08 09:37:11;;;;;;;6.43;3.50;;;;;;;22.62;47.97;102171.44;5016222;28;20128;-91
2021/07/08 09:39:46;;;;;;;5.93;3.38;;;;;;;22.77;47.70;102174.78;5015805;28;20022;-89
2021/07/08 09:42:13;;;;;;;6.43;3.78;;;;;;;22.66;47.87;102186.28;5015396;28;20425;-87
2021/07/08 09:44:43;;;;;;;5.60;3.35;;;;;;;22.68;47.83;102182.75;4998965;28;20396;-89
2021/07/08 09:47:24;;;;;;;9.35;4.00;;;;;;;22.59;48.65;102185.47;4999794;28;20030;-89
2021/07/08 09:49:49;;;;;;;7.88;3.78;;;;;;;22.62;48.05;102182.81;5017679;28;20024;-89
2021/07/08 09:52:15;;;;;;;6.15;3.67;;;;;;;22.68;48.21;102176.63;5017901;28;20108;-89
2021/07/08 09:57:45;;;;;;;6.75;3.80;;;;;;;22.66;48.15;102166.16;5018891;28;20045;-89
2021/07/08 10:00:21;;;;;;;9.05;3.60;;;;;;;22.65;47.74;102163.56;4963994;28;20038;-89
2021/07/08 10:02:48;;;;;;;5.88;3.72;;;;;;;22.66;47.94;102149.53;5016278;28;20026;-89
2021/07/08 10:05:15;;;;;;;5.97;3.60;;;;;;;22.64;47.78;102164.44;4999535;28;20041;-88
2021/07/08 10:07:42;;;;;;;8.13;3.33;;;;;;;22.69;48.05;102166.13;4999895;28;20487;-89
2021/07/08 10:10:08;;;;;;;8.38;3.80;;;;;;;22.72;47.80;102170.47;5015269;28;20029;-89
2021/07/08 10:12:37;;;;;;;5.72;3.40;;;;;;;22.75;47.63;102166.03;4982247;28;20388;-89
2021/07/08 10:15:05;;;;;;;6.38;3.83;;;;;;;22.70;47.70;102173.09;5021415;28;20618;-90
2021/07/08 10:17:33;;;;;;;8.20;3.70;;;;;;;22.63;47.60;102178.44;5018128;28;20029;-90
2021/07/08 10:19:58;;;;;;;9.35;3.85;;;;;;;22.53;48.07;102182.91;5018723;28;20033;-90
2021/07/08 10:22:24;;;;;;;5.50;3.80;;;;;;;22.44;48.01;102186.47;5002335;28;20036;-91
2021/07/08 10:24:50;;;;;;;8.93;4.03;;;;;;;22.42;48.28;102190.84;5002209;28;20036;-90
2021/07/08 10:27:17;;;;;;;5.35;3.72;;;;;;;22.49;47.98;102191.66;5036074;28;20021;-89
2021/07/08 10:29:44;;;;;;;8.20;3.90;;;;;;;22.42;48.17;102196.09;5017702;28;20029;-89
2021/07/08 10:32:13;;;;;;;6.35;3.92;;;;;;;22.44;48.25;102199.59;5018447;28;20030;-91
2021/07/08 10:34:48;;;;;;;4.85;3.67;;;;;;;22.41;48.45;102203.97;5001826;28;20025;-89
2021/07/08 10:37:28;;;;;;;7.95;4.20;;;;;;;22.41;48.52;102199.63;5018007;28;20036;-89
2021/07/08 10:39:55;;;;;;;6.03;3.55;;;;;;;22.50;48.61;102201.28;5017808;28;20021;-89
2021/07/08 10:42:42;;;;;;;7.10;3.80;;;;;;;22.45;48.64;102206.59;4985134;28;20025;-86
2021/07/08 10:45:09;;;;;;;6.40;4.10;;;;;;;22.46;48.71;102208.31;5035437;28;20036;-87
2021/07/08 10:47:40;;;;;;;8.50;4.40;;;;;;;22.46;48.85;102208.31;5017499;28;20124;-91
2021/07/08 10:50:28;;;;;;;7.70;4.00;;;;;;;22.53;48.65;102224.88;5017543;28;20049;-88
2021/07/08 10:52:54;;;;;;;7.72;3.70;;;;;;;22.55;48.57;102220.47;5014961;28;20424;-90
2021/07/08 10:55:34;;;;;;;6.32;3.75;;;;;;;22.58;48.93;102231.81;5017294;28;20124;-90
2021/07/08 10:58:00;;;;;;;7.55;4.15;;;;;;;22.61;48.59;102225.69;5034810;28;20039;-89
2021/07/08 11:00:48;;;;;;;8.63;4.07;;;;;;;22.47;48.72;102211.78;5017449;28;20029;-90
2021/07/08 11:03:40;;;;;;;8.07;4.07;;;;;;;22.46;49.06;102210.94;5017084;28;20017;-90
2021/07/08 11:06:17;;;;;;;9.00;4.18;;;;;;;22.45;49.21;102219.69;5016945;28;20487;-90
2021/07/08 11:08:46;;;;;;;7.57;4.20;;;;;;;22.44;49.31;102214.47;5016918;28;20044;-90
2021/07/08 11:11:24;;;;;;;10.63;4.20;;;;;;;22.43;49.10;102210.97;5016895;28;20029;-88
2021/07/08 11:13:51;;;;;;;6.95;3.70;;;;;;;22.44;48.45;102206.59;5034791;28;20429;-90
2021/07/08 11:16:38;;;;;;;5.95;3.53;;;;;;;22.44;48.38;102198.72;5000321;28;20511;-90
2021/07/08 11:19:04;;;;;;;7.90;3.60;;;;;;;22.41;48.34;102189.13;5016905;28;20037;-90
2021/07/08 11:21:52;;;;;;;5.68;3.47;;;;;;;22.49;48.16;102173.31;4984364;28;20022;-90
2021/07/08 11:24:24;;;;;;;5.13;3.50;;;;;;;22.60;48.42;102168.81;5016829;28;20460;-90
2021/07/08 11:26:53;;;;;;;7.43;3.85;;;;;;;22.57;48.06;102164.47;5017094;28;20076;-90
2021/07/08 11:29:39;;;;;;;8.05;3.40;;;;;;;22.56;48.16;102169.75;5001021;28;20541;-89
2021/07/08 11:35:25;;;;;;;12.40;4.43;;;;;;;22.58;48.03;102167.97;5017676;28;20026;-88